Terminal Aerodrome Forecast
Issued by NWS

Home | Current Version | Previous Version | Text Only | Print | Product List | Glossary On
Versions: 1 2 3 4 5 6 7 8 9 10 11 12 13 14 15
668
FTUS43 KAPX 212337
TAFPLN
TAF
KPLN 212337Z 2200/2224 19004KT P6SM FEW200
     FM220200 18005KT P6SM FEW250 WS020/20040KT
     FM221100 17005KT P6SM BKN090 WS020/20040KT
     FM221300 17006KT P6SM SCT080 WS020/20040KT
     FM221500 18010G16KT P6SM SCT080
     FM221800 19011G19KT P6SM -SHRA BKN090
     FM222100 21008KT 4SM -SHRA BR OVC050
     FM222300 25006KT 3SM -SHRA BR OVC035=

USA.gov is the U.S. government's official web portal to all federal, state and local government web resources and services.